sensor_id;sensor_type;location;lat;lon;timestamp;pressure;altitude;pressure_sealevel;temperature;humidity
62697;BME280;48761;42.680;23.312;2023-02-17T00:00:58;95740.91;;;4.88;55.46
62697;BME280;48761;42.680;23.312;2023-02-17T00:03:24;95755.50;;;4.71;55.64
62697;BME280;48761;42.680;23.312;2023-02-17T00:05:50;95759.22;;;4.64;55.99
62697;BME280;48761;42.680;23.312;2023-02-17T00:08:16;95761.16;;;4.58;55.90
62697;BME280;48761;42.680;23.312;2023-02-17T00:10:42;95750.69;;;4.55;56.54
62697;BME280;48761;42.680;23.312;2023-02-17T00:13:08;95746.53;;;4.50;56.22
62697;BME280;48761;42.680;23.312;2023-02-17T00:15:37;95752.53;;;4.53;56.42
62697;BME280;48761;42.680;23.312;2023-02-17T00:18:03;95732.38;;;4.52;56.04
62697;BME280;48761;42.680;23.312;2023-02-17T00:20:29;95743.72;;;4.54;56.22
62697;BME280;48761;42.680;23.312;2023-02-17T00:22:55;95747.34;;;4.50;56.35
62697;BME280;48761;42.680;23.312;2023-02-17T00:25:21;95743.91;;;4.48;56.62
62697;BME280;48761;42.680;23.312;2023-02-17T00:27:46;95733.50;;;4.45;56.23
62697;BME280;48761;42.680;23.312;2023-02-17T00:30:12;95700.34;;;4.37;56.01
62697;BME280;48761;42.680;23.312;2023-02-17T00:32:38;95705.03;;;4.28;56.46
62697;BME280;48761;42.680;23.312;2023-02-17T00:35:04;95731.69;;;4.47;56.29
62697;BME280;48761;42.680;23.312;2023-02-17T00:37:33;95731.75;;;4.44;56.79
62697;BME280;48761;42.680;23.312;2023-02-17T00:39:59;95728.25;;;4.43;56.74
62697;BME280;48761;42.680;23.312;2023-02-17T00:42:25;95728.41;;;4.39;56.50
62697;BME280;48761;42.680;23.312;2023-02-17T00:44:51;95709.88;;;4.42;56.47
62697;BME280;48761;42.680;23.312;2023-02-17T00:47:17;95683.72;;;4.08;56.41
62697;BME280;48761;42.680;23.312;2023-02-17T00:49:43;95725.44;;;4.21;57.05
62697;BME280;48761;42.680;23.312;2023-02-17T00:52:09;95716.81;;;4.15;57.17
62697;BME280;48761;42.680;23.312;2023-02-17T00:54:35;95727.34;;;4.15;57.48
62697;BME280;48761;42.680;23.312;2023-02-17T00:57:01;95720.94;;;3.96;58.00
62697;BME280;48761;42.680;23.312;2023-02-17T00:59:27;95723.47;;;3.99;57.86
62697;BME280;48761;42.680;23.312;2023-02-17T01:01:52;95723.47;;;3.99;57.91
62697;BME280;48761;42.680;23.312;2023-02-17T01:04:19;95720.47;;;4.11;57.99
62697;BME280;48761;42.680;23.312;2023-02-17T01:06:45;95702.66;;;4.20;57.44
62697;BME280;48761;42.680;23.312;2023-02-17T01:09:13;95716.75;;;4.19;57.26
62697;BME280;48761;42.680;23.312;2023-02-17T01:11:39;95700.31;;;4.10;57.64
62697;BME280;48761;42.680;23.312;2023-02-17T01:14:05;95716.00;;;4.13;57.93
62697;BME280;48761;42.680;23.312;2023-02-17T01:16:34;95709.25;;;3.74;58.03
62697;BME280;48761;42.680;23.312;2023-02-17T01:19:02;95711.94;;;3.73;58.81
62697;BME280;48761;42.680;23.312;2023-02-17T01:21:29;95713.47;;;3.81;58.64
62697;BME280;48761;42.680;23.312;2023-02-17T01:23:57;95720.94;;;3.96;57.89
62697;BME280;48761;42.680;23.312;2023-02-17T01:26:26;95708.56;;;3.99;58.27
62697;BME280;48761;42.680;23.312;2023-02-17T01:28:53;95705.13;;;3.96;58.07
62697;BME280;48761;42.680;23.312;2023-02-17T01:31:20;95703.19;;;4.02;57.73
62697;BME280;48761;42.680;23.312;2023-02-17T01:33:46;95703.97;;;4.04;57.61
62697;BME280;48761;42.680;23.312;2023-02-17T01:36:14;95699.41;;;4.11;57.98
62697;BME280;48761;42.680;23.312;2023-02-17T01:38:40;95675.69;;;3.84;58.57
62697;BME280;48761;42.680;23.312;2023-02-17T01:41:07;95697.09;;;4.00;58.15
62697;BME280;48761;42.680;23.312;2023-02-17T01:43:33;95700.47;;;3.75;58.26
62697;BME280;48761;42.680;23.312;2023-02-17T01:46:06;95704.78;;;3.78;58.31
62697;BME280;48761;42.680;23.312;2023-02-17T01:48:38;95699.47;;;3.79;58.30
62697;BME280;48761;42.680;23.312;2023-02-17T01:51:12;95700.53;;;3.74;58.81
62697;BME280;48761;42.680;23.312;2023-02-17T01:53:46;95711.78;;;3.79;58.95
62697;BME280;48761;42.680;23.312;2023-02-17T01:56:14;95701.97;;;3.84;58.95
62697;BME280;48761;42.680;23.312;2023-02-17T01:58:45;95701.03;;;3.87;58.53
62697;BME280;48761;42.680;23.312;2023-02-17T02:01:12;95687.81;;;3.88;58.99
62697;BME280;48761;42.680;23.312;2023-02-17T02:03:38;95680.94;;;3.84;58.98
62697;BME280;48761;42.680;23.312;2023-02-17T02:06:08;95677.44;;;3.21;60.20
62697;BME280;48761;42.680;23.312;2023-02-17T02:09:07;95685.97;;;2.96;61.47
62697;BME280;48761;42.680;23.312;2023-02-17T02:11:34;95694.28;;;2.80;62.19
62697;BME280;48761;42.680;23.312;2023-02-17T02:14:01;95691.88;;;1.96;65.13
62697;BME280;48761;42.680;23.312;2023-02-17T02:16:49;95691.75;;;1.61;67.08
62697;BME280;48761;42.680;23.312;2023-02-17T02:19:55;95690.53;;;1.35;68.68
62697;BME280;48761;42.680;23.312;2023-02-17T02:30:52;95688.03;;;2.50;65.08
62697;BME280;48761;42.680;23.312;2023-02-17T02:33:39;95677.03;;;2.70;64.13
62697;BME280;48761;42.680;23.312;2023-02-17T02:36:30;95696.06;;;2.78;63.82
62697;BME280;48761;42.680;23.312;2023-02-17T02:39:11;95691.34;;;2.91;62.92
62697;BME280;48761;42.680;23.312;2023-02-17T02:41:42;95702.56;;;2.98;62.83
62697;BME280;48761;42.680;23.312;2023-02-17T02:44:13;95691.63;;;3.14;62.16
62697;BME280;48761;42.680;23.312;2023-02-17T02:46:39;95686.50;;;3.11;61.94
62697;BME280;48761;42.680;23.312;2023-02-17T02:49:06;95692.56;;;3.13;61.77
62697;BME280;48761;42.680;23.312;2023-02-17T02:54:45;95690.16;;;3.37;61.70
62697;BME280;48761;42.680;23.312;2023-02-17T03:03:00;95684.75;;;3.42;60.85
62697;BME280;48761;42.680;23.312;2023-02-17T03:08:21;95696.72;;;3.54;60.40
62697;BME280;48761;42.680;23.312;2023-02-17T03:10:51;95690.72;;;3.49;60.33
62697;BME280;48761;42.680;23.312;2023-02-17T03:13:19;95683.47;;;3.25;61.08
62697;BME280;48761;42.680;23.312;2023-02-17T03:15:45;95690.50;;;3.24;61.04
62697;BME280;48761;42.680;23.312;2023-02-17T03:18:12;95694.28;;;2.80;62.13
62697;BME280;48761;42.680;23.312;2023-02-17T03:20:52;95708.28;;;2.06;64.73
62697;BME280;48761;42.680;23.312;2023-02-17T03:23:19;95689.28;;;1.53;67.17
62697;BME280;48761;42.680;23.312;2023-02-17T03:25:45;95703.84;;;1.68;67.21
62697;BME280;48761;42.680;23.312;2023-02-17T03:28:11;95691.06;;;1.93;66.49
62697;BME280;48761;42.680;23.312;2023-02-17T03:30:36;95708.38;;;2.01;66.41
62697;BME280;48761;42.680;23.312;2023-02-17T03:33:03;95703.69;;;1.75;67.18
62697;BME280;48761;42.680;23.312;2023-02-17T03:35:29;95683.34;;;1.86;66.47
62697;BME280;48761;42.680;23.312;2023-02-17T03:37:55;95688.50;;;2.29;65.60
62697;BME280;48761;42.680;23.312;2023-02-17T03:40:20;95688.09;;;2.46;65.02
62697;BME280;48761;42.680;23.312;2023-02-17T03:42:46;95696.22;;;2.72;63.95
62697;BME280;48761;42.680;23.312;2023-02-17T03:45:12;95685.66;;;2.74;63.50
62697;BME280;48761;42.680;23.312;2023-02-17T03:47:38;95670.16;;;2.29;64.96
62697;BME280;48761;42.680;23.312;2023-02-17T03:50:05;95684.03;;;2.33;64.86
62697;BME280;48761;42.680;23.312;2023-02-17T03:52:31;95694.66;;;2.65;64.47
62697;BME280;48761;42.680;23.312;2023-02-17T03:54:57;95675.16;;;2.75;64.04
62697;BME280;48761;42.680;23.312;2023-02-17T03:57:23;95681.03;;;2.84;63.20
62697;BME280;48761;42.680;23.312;2023-02-17T03:59:49;95683.16;;;3.04;63.11
62697;BME280;48761;42.680;23.312;2023-02-17T04:02:15;95691.97;;;3.01;63.08
62697;BME280;48761;42.680;23.312;2023-02-17T04:04:40;95686.63;;;3.05;62.20
62697;BME280;48761;42.680;23.312;2023-02-17T04:07:06;95682.94;;;3.12;62.46
62697;BME280;48761;42.680;23.312;2023-02-17T04:09:33;95660.22;;;3.11;62.01
62697;BME280;48761;42.680;23.312;2023-02-17T04:11:58;95669.25;;;3.00;61.98
62697;BME280;48761;42.680;23.312;2023-02-17T04:14:24;95676.94;;;3.07;62.16
62697;BME280;48761;42.680;23.312;2023-02-17T04:16:50;95693.91;;;2.95;62.57
62697;BME280;48761;42.680;23.312;2023-02-17T04:19:16;95650.59;;;2.76;62.48
62697;BME280;48761;42.680;23.312;2023-02-17T04:21:42;95686.91;;;2.95;62.59
62697;BME280;48761;42.680;23.312;2023-02-17T04:24:08;95682.28;;;3.03;62.50
62697;BME280;48761;42.680;23.312;2023-02-17T04:26:34;95682.31;;;3.02;62.30
62697;BME280;48761;42.680;23.312;2023-02-17T04:29:03;95686.06;;;2.93;62.43
62697;BME280;48761;42.680;23.312;2023-02-17T04:31:29;95694.59;;;2.68;63.25
62697;BME280;48761;42.680;23.312;2023-02-17T04:33:55;95687.75;;;2.61;63.47
62697;BME280;48761;42.680;23.312;2023-02-17T04:36:21;95702.22;;;2.77;63.31
62697;BME280;48761;42.680;23.312;2023-02-17T04:38:47;95698.56;;;2.83;63.20
62697;BME280;48761;42.680;23.312;2023-02-17T04:41:13;95696.19;;;2.74;63.17
62697;BME280;48761;42.680;23.312;2023-02-17T04:43:40;95704.34;;;2.63;63.65
62697;BME280;48761;42.680;23.312;2023-02-17T04:46:06;95688.59;;;2.63;63.66
62697;BME280;48761;42.680;23.312;2023-02-17T04:48:32;95700.53;;;2.75;63.40
62697;BME280;48761;42.680;23.312;2023-02-17T04:50:58;95690.81;;;2.78;63.46
62697;BME280;48761;42.680;23.312;2023-02-17T04:53:24;95698.28;;;2.94;62.64
62697;BME280;48761;42.680;23.312;2023-02-17T04:55:51;95676.78;;;2.79;62.72
62697;BME280;48761;42.680;23.312;2023-02-17T04:58:18;95695.41;;;3.03;62.02
62697;BME280;48761;42.680;23.312;2023-02-17T05:00:46;95686.56;;;3.08;61.95
62697;BME280;48761;42.680;23.312;2023-02-17T05:03:12;95700.91;;;2.94;63.13
62697;BME280;48761;42.680;23.312;2023-02-17T05:05:38;95698.69;;;2.78;62.66
62697;BME280;48761;42.680;23.312;2023-02-17T05:08:05;95682.09;;;2.76;62.63
62697;BME280;48761;42.680;23.312;2023-02-17T05:10:31;95699.28;;;2.90;63.06
62697;BME280;48761;42.680;23.312;2023-02-17T05:12:57;95720.13;;;2.96;62.96
62697;BME280;48761;42.680;23.312;2023-02-17T05:15:22;95701.84;;;2.93;62.69
62697;BME280;48761;42.680;23.312;2023-02-17T05:17:48;95731.72;;;2.52;64.12
62697;BME280;48761;42.680;23.312;2023-02-17T05:20:14;95726.03;;;2.33;64.41
62697;BME280;48761;42.680;23.312;2023-02-17T05:22:40;95734.75;;;2.33;64.82
62697;BME280;48761;42.680;23.312;2023-02-17T05:25:06;95716.03;;;2.49;64.53
62697;BME280;48761;42.680;23.312;2023-02-17T05:27:32;95725.38;;;2.61;64.33
62697;BME280;48761;42.680;23.312;2023-02-17T05:29:58;95711.94;;;2.74;63.93
62697;BME280;48761;42.680;23.312;2023-02-17T05:32:24;95723.50;;;2.28;64.94
62697;BME280;48761;42.680;23.312;2023-02-17T05:34:50;95734.06;;;2.63;64.42
62697;BME280;48761;42.680;23.312;2023-02-17T05:37:16;95741.84;;;2.68;64.40
62697;BME280;48761;42.680;23.312;2023-02-17T05:39:42;95739.69;;;2.09;66.13
62697;BME280;48761;42.680;23.312;2023-02-17T05:42:08;95724.28;;;1.94;66.12
62697;BME280;48761;42.680;23.312;2023-02-17T05:44:34;95737.38;;;2.33;65.70
62697;BME280;48761;42.680;23.312;2023-02-17T05:46:59;95753.31;;;2.65;65.15
62697;BME280;48761;42.680;23.312;2023-02-17T05:49:25;95752.06;;;2.80;64.49
62697;BME280;48761;42.680;23.312;2023-02-17T05:51:51;95736.31;;;2.80;64.81
62697;BME280;48761;42.680;23.312;2023-02-17T05:54:18;95759.41;;;3.01;64.19
62697;BME280;48761;42.680;23.312;2023-02-17T05:56:44;95753.00;;;2.78;63.98
62697;BME280;48761;42.680;23.312;2023-02-17T05:59:10;95763.41;;;2.81;64.69
62697;BME280;48761;42.680;23.312;2023-02-17T06:01:36;95761.19;;;3.00;64.38
62697;BME280;48761;42.680;23.312;2023-02-17T06:04:02;95758.16;;;3.16;63.95
62697;BME280;48761;42.680;23.312;2023-02-17T06:06:28;95755.88;;;3.37;63.46
62697;BME280;48761;42.680;23.312;2023-02-17T06:08:54;95750.47;;;3.42;63.80
62697;BME280;48761;42.680;23.312;2023-02-17T06:11:20;95753.22;;;3.70;63.02
62697;BME280;48761;42.680;23.312;2023-02-17T06:13:46;95752.19;;;3.76;62.12
62697;BME280;48761;42.680;23.312;2023-02-17T06:16:12;95760.22;;;3.72;62.68
62697;BME280;48761;42.680;23.312;2023-02-17T06:18:38;95748.69;;;3.76;61.63
62697;BME280;48761;42.680;23.312;2023-02-17T06:21:04;95750.31;;;3.80;61.50
62697;BME280;48761;42.680;23.312;2023-02-17T06:23:30;95760.84;;;3.80;61.44
62697;BME280;48761;42.680;23.312;2023-02-17T06:25:56;95769.19;;;3.95;61.63
62697;BME280;48761;42.680;23.312;2023-02-17T06:28:22;95759.31;;;4.03;62.29
62697;BME280;48761;42.680;23.312;2023-02-17T06:30:48;95763.66;;;4.34;61.10
62697;BME280;48761;42.680;23.312;2023-02-17T06:33:14;95768.09;;;4.61;61.36
62697;BME280;48761;42.680;23.312;2023-02-17T06:35:39;95760.34;;;4.84;59.73
62697;BME280;48761;42.680;23.312;2023-02-17T06:38:05;95771.84;;;4.54;59.82
62697;BME280;48761;42.680;23.312;2023-02-17T06:40:32;95769.13;;;4.84;59.45
62697;BME280;48761;42.680;23.312;2023-02-17T06:42:57;95772.94;;;4.75;59.30
62697;BME280;48761;42.680;23.312;2023-02-17T06:45:23;95762.78;;;5.17;59.61
62697;BME280;48761;42.680;23.312;2023-02-17T06:47:49;95771.41;;;5.74;58.13
62697;BME280;48761;42.680;23.312;2023-02-17T06:50:15;95779.00;;;6.07;57.07
62697;BME280;48761;42.680;23.312;2023-02-17T06:52:41;95778.34;;;6.26;56.28
62697;BME280;48761;42.680;23.312;2023-02-17T06:55:07;95775.34;;;6.11;55.89
62697;BME280;48761;42.680;23.312;2023-02-17T06:57:33;95783.09;;;6.16;55.65
62697;BME280;48761;42.680;23.312;2023-02-17T06:59:59;95773.59;;;5.86;55.11
62697;BME280;48761;42.680;23.312;2023-02-17T07:02:25;95779.78;;;5.34;55.99
62697;BME280;48761;42.680;23.312;2023-02-17T07:04:51;95788.50;;;5.10;56.92
62697;BME280;48761;42.680;23.312;2023-02-17T07:07:17;95784.94;;;5.11;57.15
62697;BME280;48761;42.680;23.312;2023-02-17T07:09:43;95784.38;;;5.01;57.08
62697;BME280;48761;42.680;23.312;2023-02-17T07:12:09;95775.06;;;5.18;56.82
62697;BME280;48761;42.680;23.312;2023-02-17T07:14:35;95785.47;;;5.21;56.92
62697;BME280;48761;42.680;23.312;2023-02-17T07:17:01;95789.81;;;5.49;56.34
62697;BME280;48761;42.680;23.312;2023-02-17T07:19:28;95785.94;;;5.60;56.00
62697;BME280;48761;42.680;23.312;2023-02-17T07:21:54;95793.50;;;5.71;55.88
62697;BME280;48761;42.680;23.312;2023-02-17T07:24:20;95788.03;;;6.00;55.54
62697;BME280;48761;42.680;23.312;2023-02-17T07:26:46;95801.00;;;6.08;54.85
62697;BME280;48761;42.680;23.312;2023-02-17T07:29:12;95788.94;;;6.93;53.53
62697;BME280;48761;42.680;23.312;2023-02-17T07:31:38;95788.56;;;7.67;52.07
62697;BME280;48761;42.680;23.312;2023-02-17T07:34:04;95787.34;;;7.95;50.69
62697;BME280;48761;42.680;23.312;2023-02-17T07:36:31;95794.13;;;8.41;49.87
62697;BME280;48761;42.680;23.312;2023-02-17T07:38:57;95797.34;;;8.68;48.45
62697;BME280;48761;42.680;23.312;2023-02-17T07:41:24;95799.69;;;8.93;47.69
62697;BME280;48761;42.680;23.312;2023-02-17T07:43:55;95777.50;;;8.38;47.99
62697;BME280;48761;42.680;23.312;2023-02-17T07:46:22;95790.09;;;8.13;48.08
62697;BME280;48761;42.680;23.312;2023-02-17T07:48:48;95763.47;;;8.16;48.41
62697;BME280;48761;42.680;23.312;2023-02-17T07:51:17;95787.81;;;8.83;47.52
62697;BME280;48761;42.680;23.312;2023-02-17T07:53:43;95786.16;;;9.53;46.17
62697;BME280;48761;42.680;23.312;2023-02-17T07:56:12;95787.09;;;9.16;46.21
62697;BME280;48761;42.680;23.312;2023-02-17T07:58:40;95773.47;;;9.42;45.86
62697;BME280;48761;42.680;23.312;2023-02-17T08:01:14;95784.81;;;9.97;45.21
62697;BME280;48761;42.680;23.312;2023-02-17T08:03:40;95790.69;;;10.20;44.29
62697;BME280;48761;42.680;23.312;2023-02-17T08:06:11;95788.75;;;10.06;44.43
62697;BME280;48761;42.680;23.312;2023-02-17T08:08:37;95789.94;;;10.35;43.88
62697;BME280;48761;42.680;23.312;2023-02-17T08:11:03;95786.25;;;10.37;44.06
62697;BME280;48761;42.680;23.312;2023-02-17T08:13:29;95784.22;;;9.74;45.07
62697;BME280;48761;42.680;23.312;2023-02-17T08:15:55;95784.31;;;10.07;44.51
62697;BME280;48761;42.680;23.312;2023-02-17T08:18:21;95783.19;;;9.77;45.04
62697;BME280;48761;42.680;23.312;2023-02-17T08:20:47;95784.69;;;9.65;45.33
62697;BME280;48761;42.680;23.312;2023-02-17T08:23:13;95771.72;;;9.77;45.07
62697;BME280;48761;42.680;23.312;2023-02-17T08:25:39;95779.06;;;10.39;44.37
62697;BME280;48761;42.680;23.312;2023-02-17T08:28:05;95784.22;;;10.42;44.16
62697;BME280;48761;42.680;23.312;2023-02-17T08:30:34;95768.97;;;10.46;44.01
62697;BME280;48761;42.680;23.312;2023-02-17T08:33:00;95747.81;;;10.27;44.08
62697;BME280;48761;42.680;23.312;2023-02-17T08:35:26;95763.81;;;10.59;43.83
62697;BME280;48761;42.680;23.312;2023-02-17T08:37:52;95761.28;;;10.74;43.92
62697;BME280;48761;42.680;23.312;2023-02-17T08:40:19;95771.03;;;10.90;43.71
62697;BME280;48761;42.680;23.312;2023-02-17T08:42:45;95762.13;;;10.91;43.35
62697;BME280;48761;42.680;23.312;2023-02-17T08:45:12;95768.38;;;11.37;42.42
62697;BME280;48761;42.680;23.312;2023-02-17T08:47:39;95769.94;;;11.55;41.88
62697;BME280;48761;42.680;23.312;2023-02-17T08:50:06;95769.44;;;11.80;41.38
62697;BME280;48761;42.680;23.312;2023-02-17T08:52:33;95761.09;;;12.01;41.15
62697;BME280;48761;42.680;23.312;2023-02-17T08:54:59;95736.53;;;12.10;40.01
62697;BME280;48761;42.680;23.312;2023-02-17T08:57:26;95763.16;;;12.54;39.34
62697;BME280;48761;42.680;23.312;2023-02-17T08:59:52;95734.22;;;12.48;39.43
62697;BME280;48761;42.680;23.312;2023-02-17T09:02:18;95755.50;;;13.05;36.83
62697;BME280;48761;42.680;23.312;2023-02-17T09:04:45;95738.66;;;12.62;34.75
62697;BME280;48761;42.680;23.312;2023-02-17T09:07:12;95767.66;;;12.96;34.46
62697;BME280;48761;42.680;23.312;2023-02-17T09:09:39;95761.56;;;12.94;33.65
62697;BME280;48761;42.680;23.312;2023-02-17T09:12:05;95753.00;;;13.16;33.23
62697;BME280;48761;42.680;23.312;2023-02-17T09:14:32;95759.53;;;12.97;32.84
62697;BME280;48761;42.680;23.312;2023-02-17T09:16:58;95757.91;;;13.09;32.58
62697;BME280;48761;42.680;23.312;2023-02-17T09:19:24;95752.97;;;13.44;32.60
62697;BME280;48761;42.680;23.312;2023-02-17T09:21:51;95757.84;;;13.65;31.79
62697;BME280;48761;42.680;23.312;2023-02-17T09:24:17;95743.47;;;13.40;32.28
62697;BME280;48761;42.680;23.312;2023-02-17T09:26:44;95763.22;;;13.50;31.88
62697;BME280;48761;42.680;23.312;2023-02-17T09:29:10;95757.97;;;13.89;31.67
62697;BME280;48761;42.680;23.312;2023-02-17T09:31:36;95748.66;;;13.69;30.94
62697;BME280;48761;42.680;23.312;2023-02-17T09:34:03;95760.34;;;13.53;31.53
62697;BME280;48761;42.680;23.312;2023-02-17T09:36:36;95758.47;;;13.69;31.38
62697;BME280;48761;42.680;23.312;2023-02-17T09:39:03;95738.81;;;13.56;31.17
62697;BME280;48761;42.680;23.312;2023-02-17T09:41:38;95738.06;;;13.81;31.09
62697;BME280;48761;42.680;23.312;2023-02-17T09:47:19;95755.94;;;14.06;30.74
62697;BME280;48761;42.680;23.312;2023-02-17T09:49:53;95738.75;;;13.97;30.99
62697;BME280;48761;42.680;23.312;2023-02-17T09:52:33;95751.81;;;14.53;30.60
62697;BME280;48761;42.680;23.312;2023-02-17T09:55:05;95747.44;;;14.52;29.88
62697;BME280;48761;42.680;23.312;2023-02-17T09:57:47;95755.84;;;14.72;30.38
62697;BME280;48761;42.680;23.312;2023-02-17T10:00:53;95747.28;;;14.66;30.35
62697;BME280;48761;42.680;23.312;2023-02-17T10:03:19;95744.03;;;14.87;30.00
62697;BME280;48761;42.680;23.312;2023-02-17T10:06:12;95740.66;;;14.59;29.42
62697;BME280;48761;42.680;23.312;2023-02-17T10:13:56;95737.00;;;14.86;29.29
62697;BME280;48761;42.680;23.312;2023-02-17T10:16:28;95723.69;;;14.85;29.35
62697;BME280;48761;42.680;23.312;2023-02-17T10:19:11;95730.31;;;14.92;29.26
62697;BME280;48761;42.680;23.312;2023-02-17T10:21:50;95709.81;;;14.66;28.61
62697;BME280;48761;42.680;23.312;2023-02-17T10:24:20;95694.38;;;14.83;28.58
62697;BME280;48761;42.680;23.312;2023-02-17T10:26:59;95717.47;;;14.84;28.50
62697;BME280;48761;42.680;23.312;2023-02-17T10:32:14;95717.94;;;14.78;28.91
62697;BME280;48761;42.680;23.312;2023-02-17T10:40:20;95706.25;;;15.17;28.95
62697;BME280;48761;42.680;23.312;2023-02-17T10:42:49;95709.59;;;15.32;28.59
62697;BME280;48761;42.680;23.312;2023-02-17T10:45:37;95703.44;;;15.18;28.35
62697;BME280;48761;42.680;23.312;2023-02-17T10:48:15;95694.38;;;14.83;29.07
62697;BME280;48761;42.680;23.312;2023-02-17T10:50:44;95679.94;;;14.73;29.40
62697;BME280;48761;42.680;23.312;2023-02-17T10:53:22;95691.53;;;14.98;29.10
62697;BME280;48761;42.680;23.312;2023-02-17T10:55:56;95694.19;;;15.22;28.93
62697;BME280;48761;42.680;23.312;2023-02-17T10:58:48;95689.06;;;15.19;29.18
62697;BME280;48761;42.680;23.312;2023-02-17T11:01:15;95678.28;;;14.96;28.69
62697;BME280;48761;42.680;23.312;2023-02-17T11:03:41;95683.53;;;15.09;28.76
62697;BME280;48761;42.680;23.312;2023-02-17T11:06:19;95689.22;;;14.80;29.57
62697;BME280;48761;42.680;23.312;2023-02-17T11:11:18;95672.84;;;15.09;29.14
62697;BME280;48761;42.680;23.312;2023-02-17T11:16:43;95673.31;;;15.03;29.27
62697;BME280;48761;42.680;23.312;2023-02-17T11:19:26;95673.75;;;14.97;29.58
62697;BME280;48761;42.680;23.312;2023-02-17T11:21:54;95676.38;;;14.85;29.61
62697;BME280;48761;42.680;23.312;2023-02-17T11:24:21;95666.06;;;14.92;29.90
62697;BME280;48761;42.680;23.312;2023-02-17T11:27:07;95654.50;;;14.92;29.66
62697;BME280;48761;42.680;23.312;2023-02-17T11:29:33;95674.84;;;15.19;29.72
62697;BME280;48761;42.680;23.312;2023-02-17T11:32:07;95656.69;;;15.22;29.39
62697;BME280;48761;42.680;23.312;2023-02-17T11:34:37;95665.22;;;15.28;29.30
62697;BME280;48761;42.680;23.312;2023-02-17T11:39:44;95654.16;;;15.21;29.43
62697;BME280;48761;42.680;23.312;2023-02-17T11:42:14;95654.38;;;15.18;29.77
62697;BME280;48761;42.680;23.312;2023-02-17T11:44:40;95660.22;;;15.11;29.54
62697;BME280;48761;42.680;23.312;2023-02-17T11:47:43;95657.03;;;15.06;29.37
62697;BME280;48761;42.680;23.312;2023-02-17T11:52:53;95653.47;;;14.81;30.03
62697;BME280;48761;42.680;23.312;2023-02-17T12:07:08;95630.75;;;14.62;30.35
62697;BME280;48761;42.680;23.312;2023-02-17T12:12:44;95620.50;;;14.31;30.47
62697;BME280;48761;42.680;23.312;2023-02-17T12:21:03;95618.56;;;14.33;30.48
62697;BME280;48761;42.680;23.312;2023-02-17T12:31:59;95608.13;;;14.17;30.85
62697;BME280;48761;42.680;23.312;2023-02-17T12:34:33;95598.03;;;14.34;30.90
62697;BME280;48761;42.680;23.312;2023-02-17T12:37:00;95591.31;;;14.28;30.81
62697;BME280;48761;42.680;23.312;2023-02-17T12:39:43;95563.41;;;14.19;30.74
62697;BME280;48761;42.680;23.312;2023-02-17T12:42:17;95579.94;;;14.13;30.91
62697;BME280;48761;42.680;23.312;2023-02-17T12:44:50;95587.19;;;14.11;30.90
62697;BME280;48761;42.680;23.312;2023-02-17T12:47:40;95582.09;;;14.08;30.92
62697;BME280;48761;42.680;23.312;2023-02-17T12:50:20;95581.03;;;13.97;31.44
62697;BME280;48761;42.680;23.312;2023-02-17T12:52:51;95587.66;;;13.92;31.24
62697;BME280;48761;42.680;23.312;2023-02-17T12:55:26;95573.28;;;14.06;31.32
62697;BME280;48761;42.680;23.312;2023-02-17T13:00:38;95567.50;;;14.12;31.42
62697;BME280;48761;42.680;23.312;2023-02-17T13:03:05;95567.22;;;14.04;31.73
62697;BME280;48761;42.680;23.312;2023-02-17T13:05:51;95573.06;;;14.09;31.21
62697;BME280;48761;42.680;23.312;2023-02-17T13:08:27;95567.94;;;14.06;31.25
62697;BME280;48761;42.680;23.312;2023-02-17T13:11:00;95567.56;;;13.86;31.76
62697;BME280;48761;42.680;23.312;2023-02-17T13:13:29;95563.50;;;13.93;31.69
62697;BME280;48761;42.680;23.312;2023-02-17T13:16:08;95568.47;;;14.11;30.97
62697;BME280;48761;42.680;23.312;2023-02-17T13:18:39;95568.91;;;14.18;30.99
62697;BME280;48761;42.680;23.312;2023-02-17T13:24:13;95567.50;;;14.12;30.73
62697;BME280;48761;42.680;23.312;2023-02-17T13:26:39;95572.88;;;14.12;30.82
62697;BME280;48761;42.680;23.312;2023-02-17T13:29:20;95563.63;;;14.16;30.13
62697;BME280;48761;42.680;23.312;2023-02-17T13:31:58;95566.25;;;14.05;30.25
62697;BME280;48761;42.680;23.312;2023-02-17T13:34:29;95560.75;;;14.19;29.96
62697;BME280;48761;42.680;23.312;2023-02-17T13:36:55;95558.03;;;14.08;30.14
62697;BME280;48761;42.680;23.312;2023-02-17T13:41:51;95549.31;;;14.17;29.21
62697;BME280;48761;42.680;23.312;2023-02-17T13:44:38;95558.28;;;14.16;28.73
62697;BME280;48761;42.680;23.312;2023-02-17T13:47:35;95557.16;;;14.07;29.11
62697;BME280;48761;42.680;23.312;2023-02-17T13:50:03;95551.25;;;14.15;29.13
62697;BME280;48761;42.680;23.312;2023-02-17T13:52:30;95554.59;;;14.06;28.95
62697;BME280;48761;42.680;23.312;2023-02-17T13:57:27;95554.53;;;13.94;28.67
62697;BME280;48761;42.680;23.312;2023-02-17T14:02:53;95561.16;;;13.88;28.03
62697;BME280;48761;42.680;23.312;2023-02-17T14:05:36;95561.63;;;13.82;28.31
62697;BME280;48761;42.680;23.312;2023-02-17T14:08:05;95551.16;;;13.79;28.24
62697;BME280;48761;42.680;23.312;2023-02-17T14:10:32;95549.34;;;13.80;28.31
62697;BME280;48761;42.680;23.312;2023-02-17T14:12:58;95544.56;;;13.59;28.37
62697;BME280;48761;42.680;23.312;2023-02-17T14:15:26;95554.91;;;13.63;29.16
62697;BME280;48761;42.680;23.312;2023-02-17T14:17:53;95547.53;;;13.67;30.14
62697;BME280;48761;42.680;23.312;2023-02-17T14:23:05;95552.44;;;13.60;30.55
62697;BME280;48761;42.680;23.312;2023-02-17T14:25:36;95551.47;;;13.48;30.79
62697;BME280;48761;42.680;23.312;2023-02-17T14:28:03;95551.41;;;13.37;31.05
62697;BME280;48761;42.680;23.312;2023-02-17T14:30:37;95556.75;;;13.37;31.36
62697;BME280;48761;42.680;23.312;2023-02-17T14:35:31;95566.56;;;13.23;32.20
62697;BME280;48761;42.680;23.312;2023-02-17T14:38:30;95558.13;;;13.29;32.34
62697;BME280;48761;42.680;23.312;2023-02-17T14:40:54;95549.25;;;13.16;32.73